sensor_id;sensor_type;location;lat;lon;timestamp;P1;durP1;ratioP1;P2;durP2;ratioP2
51244;SDS011;37840;47.562;18.738;2023-07-20T00:02:00;7.37;;;2.62;;
51244;SDS011;37840;47.562;18.738;2023-07-20T00:04:28;7.03;;;2.65;;
51244;SDS011;37840;47.562;18.738;2023-07-20T00:06:54;5.82;;;3.10;;
51244;SDS011;37840;47.562;18.738;2023-07-20T00:09:20;5.78;;;2.90;;
51244;SDS011;37840;47.562;18.738;2023-07-20T00:11:49;6.50;;;3.08;;
51244;SDS011;37840;47.562;18.738;2023-07-20T00:14:17;4.75;;;2.90;;
51244;SDS011;37840;47.562;18.738;2023-07-20T00:16:47;8.80;;;2.92;;
51244;SDS011;37840;47.562;18.738;2023-07-20T00:19:17;6.15;;;3.35;;
51244;SDS011;37840;47.562;18.738;2023-07-20T00:21:43;7.05;;;2.80;;
51244;SDS011;37840;47.562;18.738;2023-07-20T00:24:09;6.15;;;3.10;;
51244;SDS011;37840;47.562;18.738;2023-07-20T00:26:35;4.93;;;2.80;;
51244;SDS011;37840;47.562;18.738;2023-07-20T00:29:01;8.90;;;3.40;;
51244;SDS011;37840;47.562;18.738;2023-07-20T00:31:27;6.30;;;3.05;;
51244;SDS011;37840;47.562;18.738;2023-07-20T00:33:54;6.97;;;2.90;;
51244;SDS011;37840;47.562;18.738;2023-07-20T00:36:20;4.10;;;2.55;;
51244;SDS011;37840;47.562;18.738;2023-07-20T00:38:46;6.72;;;2.85;;
51244;SDS011;37840;47.562;18.738;2023-07-20T00:41:12;4.93;;;3.05;;
51244;SDS011;37840;47.562;18.738;2023-07-20T00:43:38;7.00;;;3.20;;
51244;SDS011;37840;47.562;18.738;2023-07-20T00:46:04;6.53;;;3.10;;
51244;SDS011;37840;47.562;18.738;2023-07-20T00:48:31;4.18;;;2.55;;
51244;SDS011;37840;47.562;18.738;2023-07-20T00:50:58;4.35;;;2.80;;
51244;SDS011;37840;47.562;18.738;2023-07-20T00:53:26;5.20;;;2.75;;
51244;SDS011;37840;47.562;18.738;2023-07-20T00:55:52;3.67;;;2.47;;
51244;SDS011;37840;47.562;18.738;2023-07-20T00:58:18;4.75;;;2.83;;
51244;SDS011;37840;47.562;18.738;2023-07-20T01:00:44;6.03;;;2.90;;
51244;SDS011;37840;47.562;18.738;2023-07-20T01:03:10;7.47;;;2.87;;
51244;SDS011;37840;47.562;18.738;2023-07-20T01:06:02;4.28;;;2.78;;
51244;SDS011;37840;47.562;18.738;2023-07-20T01:08:39;5.25;;;3.05;;
51244;SDS011;37840;47.562;18.738;2023-07-20T01:11:14;7.95;;;3.42;;
51244;SDS011;37840;47.562;18.738;2023-07-20T01:13:46;5.28;;;3.17;;
51244;SDS011;37840;47.562;18.738;2023-07-20T01:16:12;5.07;;;3.28;;
51244;SDS011;37840;47.562;18.738;2023-07-20T01:18:38;9.43;;;3.53;;
51244;SDS011;37840;47.562;18.738;2023-07-20T01:21:09;8.38;;;3.22;;
51244;SDS011;37840;47.562;18.738;2023-07-20T01:32:05;6.10;;;3.28;;
51244;SDS011;37840;47.562;18.738;2023-07-20T01:34:34;6.10;;;2.87;;
51244;SDS011;37840;47.562;18.738;2023-07-20T01:37:02;5.32;;;3.08;;
51244;SDS011;37840;47.562;18.738;2023-07-20T01:39:29;4.47;;;3.17;;
51244;SDS011;37840;47.562;18.738;2023-07-20T01:41:56;8.30;;;2.78;;
51244;SDS011;37840;47.562;18.738;2023-07-20T01:44:23;5.05;;;2.87;;
51244;SDS011;37840;47.562;18.738;2023-07-20T01:46:49;5.75;;;3.17;;
51244;SDS011;37840;47.562;18.738;2023-07-20T01:49:15;4.95;;;2.97;;
51244;SDS011;37840;47.562;18.738;2023-07-20T01:51:41;9.43;;;3.42;;
51244;SDS011;37840;47.562;18.738;2023-07-20T01:54:07;5.18;;;3.10;;
51244;SDS011;37840;47.562;18.738;2023-07-20T01:56:33;6.15;;;3.30;;
51244;SDS011;37840;47.562;18.738;2023-07-20T01:58:59;6.78;;;3.30;;
51244;SDS011;37840;47.562;18.738;2023-07-20T02:01:25;6.60;;;3.33;;
51244;SDS011;37840;47.562;18.738;2023-07-20T02:03:50;11.10;;;4.37;;
51244;SDS011;37840;47.562;18.738;2023-07-20T02:06:16;8.27;;;3.42;;
51244;SDS011;37840;47.562;18.738;2023-07-20T02:08:42;7.35;;;3.45;;
51244;SDS011;37840;47.562;18.738;2023-07-20T02:11:08;8.77;;;3.72;;
51244;SDS011;37840;47.562;18.738;2023-07-20T02:13:35;11.55;;;3.55;;
51244;SDS011;37840;47.562;18.738;2023-07-20T02:16:01;10.77;;;3.58;;
51244;SDS011;37840;47.562;18.738;2023-07-20T02:18:27;7.05;;;3.58;;
51244;SDS011;37840;47.562;18.738;2023-07-20T02:20:53;6.70;;;3.42;;
51244;SDS011;37840;47.562;18.738;2023-07-20T02:23:20;7.53;;;3.10;;
51244;SDS011;37840;47.562;18.738;2023-07-20T02:25:46;6.43;;;4.15;;
51244;SDS011;37840;47.562;18.738;2023-07-20T02:28:13;6.03;;;3.83;;
51244;SDS011;37840;47.562;18.738;2023-07-20T02:30:39;6.37;;;3.35;;
51244;SDS011;37840;47.562;18.738;2023-07-20T02:33:06;5.85;;;3.60;;
51244;SDS011;37840;47.562;18.738;2023-07-20T02:35:32;7.07;;;3.33;;
51244;SDS011;37840;47.562;18.738;2023-07-20T02:37:58;5.93;;;3.65;;
51244;SDS011;37840;47.562;18.738;2023-07-20T02:40:24;7.32;;;3.40;;
51244;SDS011;37840;47.562;18.738;2023-07-20T02:42:50;6.45;;;3.22;;
51244;SDS011;37840;47.562;18.738;2023-07-20T02:45:16;6.22;;;3.00;;
51244;SDS011;37840;47.562;18.738;2023-07-20T02:47:42;7.00;;;3.62;;
51244;SDS011;37840;47.562;18.738;2023-07-20T02:50:08;5.10;;;3.20;;
51244;SDS011;37840;47.562;18.738;2023-07-20T02:52:34;5.47;;;2.62;;
51244;SDS011;37840;47.562;18.738;2023-07-20T02:55:00;5.00;;;2.50;;
51244;SDS011;37840;47.562;18.738;2023-07-20T02:57:26;4.72;;;2.40;;
51244;SDS011;37840;47.562;18.738;2023-07-20T02:59:52;4.70;;;2.50;;
51244;SDS011;37840;47.562;18.738;2023-07-20T03:02:19;3.87;;;2.67;;
51244;SDS011;37840;47.562;18.738;2023-07-20T03:04:45;5.05;;;2.47;;
51244;SDS011;37840;47.562;18.738;2023-07-20T03:07:11;3.60;;;2.53;;
51244;SDS011;37840;47.562;18.738;2023-07-20T03:09:36;4.85;;;2.47;;
51244;SDS011;37840;47.562;18.738;2023-07-20T03:12:02;3.22;;;2.30;;
51244;SDS011;37840;47.562;18.738;2023-07-20T03:14:30;3.35;;;2.28;;
51244;SDS011;37840;47.562;18.738;2023-07-20T03:16:56;3.95;;;2.70;;
51244;SDS011;37840;47.562;18.738;2023-07-20T03:19:22;3.53;;;2.28;;
51244;SDS011;37840;47.562;18.738;2023-07-20T03:21:48;3.60;;;2.40;;
51244;SDS011;37840;47.562;18.738;2023-07-20T03:24:14;3.90;;;2.30;;
51244;SDS011;37840;47.562;18.738;2023-07-20T03:26:40;5.22;;;2.58;;
51244;SDS011;37840;47.562;18.738;2023-07-20T03:29:06;3.28;;;2.40;;
51244;SDS011;37840;47.562;18.738;2023-07-20T03:31:32;5.12;;;2.35;;
51244;SDS011;37840;47.562;18.738;2023-07-20T03:33:58;4.60;;;2.45;;
51244;SDS011;37840;47.562;18.738;2023-07-20T03:36:24;3.30;;;2.35;;
51244;SDS011;37840;47.562;18.738;2023-07-20T03:38:50;2.97;;;2.30;;
51244;SDS011;37840;47.562;18.738;2023-07-20T03:41:16;3.37;;;2.33;;
51244;SDS011;37840;47.562;18.738;2023-07-20T03:43:42;3.20;;;2.37;;
51244;SDS011;37840;47.562;18.738;2023-07-20T03:46:08;3.20;;;2.28;;
51244;SDS011;37840;47.562;18.738;2023-07-20T03:48:34;3.45;;;2.25;;
51244;SDS011;37840;47.562;18.738;2023-07-20T03:51:00;3.28;;;2.42;;
51244;SDS011;37840;47.562;18.738;2023-07-20T03:53:26;4.18;;;2.40;;
51244;SDS011;37840;47.562;18.738;2023-07-20T03:55:52;3.37;;;2.30;;
51244;SDS011;37840;47.562;18.738;2023-07-20T03:58:19;8.40;;;2.87;;
51244;SDS011;37840;47.562;18.738;2023-07-20T04:00:46;7.68;;;2.50;;
51244;SDS011;37840;47.562;18.738;2023-07-20T04:03:13;3.35;;;1.80;;
51244;SDS011;37840;47.562;18.738;2023-07-20T04:05:39;4.55;;;2.45;;
51244;SDS011;37840;47.562;18.738;2023-07-20T04:08:06;3.95;;;2.00;;
51244;SDS011;37840;47.562;18.738;2023-07-20T04:10:32;3.83;;;2.58;;
51244;SDS011;37840;47.562;18.738;2023-07-20T04:12:57;3.15;;;2.50;;
51244;SDS011;37840;47.562;18.738;2023-07-20T04:15:23;3.90;;;2.40;;
51244;SDS011;37840;47.562;18.738;2023-07-20T04:17:49;4.82;;;2.40;;
51244;SDS011;37840;47.562;18.738;2023-07-20T04:20:16;3.12;;;2.47;;
51244;SDS011;37840;47.562;18.738;2023-07-20T04:22:43;2.53;;;2.15;;
51244;SDS011;37840;47.562;18.738;2023-07-20T04:25:09;3.45;;;2.33;;
51244;SDS011;37840;47.562;18.738;2023-07-20T04:27:36;3.33;;;2.70;;
51244;SDS011;37840;47.562;18.738;2023-07-20T04:30:02;2.60;;;2.10;;
51244;SDS011;37840;47.562;18.738;2023-07-20T04:32:29;3.17;;;2.17;;
51244;SDS011;37840;47.562;18.738;2023-07-20T04:34:56;2.85;;;2.15;;
51244;SDS011;37840;47.562;18.738;2023-07-20T04:37:22;7.18;;;2.67;;
51244;SDS011;37840;47.562;18.738;2023-07-20T04:39:47;3.83;;;2.55;;
51244;SDS011;37840;47.562;18.738;2023-07-20T04:42:13;3.67;;;2.40;;
51244;SDS011;37840;47.562;18.738;2023-07-20T04:44:39;3.95;;;2.25;;
51244;SDS011;37840;47.562;18.738;2023-07-20T04:47:05;4.05;;;2.28;;
51244;SDS011;37840;47.562;18.738;2023-07-20T04:49:31;4.85;;;2.62;;
51244;SDS011;37840;47.562;18.738;2023-07-20T04:51:57;4.03;;;2.55;;
51244;SDS011;37840;47.562;18.738;2023-07-20T04:54:23;2.55;;;2.30;;
51244;SDS011;37840;47.562;18.738;2023-07-20T04:56:53;5.90;;;2.65;;
51244;SDS011;37840;47.562;18.738;2023-07-20T04:59:19;4.03;;;2.60;;
51244;SDS011;37840;47.562;18.738;2023-07-20T05:01:45;2.65;;;2.20;;
51244;SDS011;37840;47.562;18.738;2023-07-20T05:04:11;4.68;;;2.70;;
51244;SDS011;37840;47.562;18.738;2023-07-20T05:06:37;3.10;;;2.40;;
51244;SDS011;37840;47.562;18.738;2023-07-20T05:09:04;6.43;;;2.58;;
51244;SDS011;37840;47.562;18.738;2023-07-20T05:11:32;4.37;;;2.62;;
51244;SDS011;37840;47.562;18.738;2023-07-20T05:13:59;3.20;;;2.22;;
51244;SDS011;37840;47.562;18.738;2023-07-20T05:16:25;4.37;;;2.72;;
51244;SDS011;37840;47.562;18.738;2023-07-20T05:18:51;5.90;;;2.37;;
51244;SDS011;37840;47.562;18.738;2023-07-20T05:21:17;3.22;;;2.28;;
51244;SDS011;37840;47.562;18.738;2023-07-20T05:23:43;3.42;;;2.30;;
51244;SDS011;37840;47.562;18.738;2023-07-20T05:26:10;3.33;;;2.60;;
51244;SDS011;37840;47.562;18.738;2023-07-20T05:28:36;2.83;;;2.40;;
51244;SDS011;37840;47.562;18.738;2023-07-20T05:31:02;4.75;;;2.85;;
51244;SDS011;37840;47.562;18.738;2023-07-20T05:33:28;4.80;;;2.90;;
51244;SDS011;37840;47.562;18.738;2023-07-20T05:35:54;4.20;;;2.60;;
51244;SDS011;37840;47.562;18.738;2023-07-20T05:38:20;3.50;;;2.65;;
51244;SDS011;37840;47.562;18.738;2023-07-20T05:40:46;3.28;;;2.50;;
51244;SDS011;37840;47.562;18.738;2023-07-20T05:43:12;4.18;;;2.65;;
51244;SDS011;37840;47.562;18.738;2023-07-20T05:45:43;4.22;;;2.70;;
51244;SDS011;37840;47.562;18.738;2023-07-20T05:48:10;4.87;;;2.97;;
51244;SDS011;37840;47.562;18.738;2023-07-20T05:50:42;5.60;;;2.65;;
51244;SDS011;37840;47.562;18.738;2023-07-20T05:53:11;3.20;;;2.60;;
51244;SDS011;37840;47.562;18.738;2023-07-20T05:55:37;5.15;;;2.70;;
51244;SDS011;37840;47.562;18.738;2023-07-20T05:58:04;4.57;;;2.78;;
51244;SDS011;37840;47.562;18.738;2023-07-20T06:00:30;4.07;;;2.30;;
51244;SDS011;37840;47.562;18.738;2023-07-20T06:02:57;4.00;;;2.58;;
51244;SDS011;37840;47.562;18.738;2023-07-20T06:05:23;2.95;;;2.20;;
51244;SDS011;37840;47.562;18.738;2023-07-20T06:07:49;5.32;;;2.70;;
51244;SDS011;37840;47.562;18.738;2023-07-20T06:10:15;4.87;;;2.67;;
51244;SDS011;37840;47.562;18.738;2023-07-20T06:12:41;3.95;;;2.53;;
51244;SDS011;37840;47.562;18.738;2023-07-20T06:15:23;2.80;;;2.50;;
51244;SDS011;37840;47.562;18.738;2023-07-20T06:17:51;4.18;;;2.58;;
51244;SDS011;37840;47.562;18.738;2023-07-20T06:20:17;5.85;;;2.55;;
51244;SDS011;37840;47.562;18.738;2023-07-20T06:22:44;3.03;;;2.30;;
51244;SDS011;37840;47.562;18.738;2023-07-20T06:25:11;4.28;;;2.60;;
51244;SDS011;37840;47.562;18.738;2023-07-20T06:27:36;3.92;;;2.33;;
51244;SDS011;37840;47.562;18.738;2023-07-20T06:30:02;3.35;;;2.50;;
51244;SDS011;37840;47.562;18.738;2023-07-20T06:32:29;3.40;;;2.60;;
51244;SDS011;37840;47.562;18.738;2023-07-20T06:34:54;3.95;;;2.22;;
51244;SDS011;37840;47.562;18.738;2023-07-20T06:37:20;3.45;;;2.35;;
51244;SDS011;37840;47.562;18.738;2023-07-20T06:39:46;3.67;;;2.55;;
51244;SDS011;37840;47.562;18.738;2023-07-20T06:42:12;3.30;;;2.30;;
51244;SDS011;37840;47.562;18.738;2023-07-20T06:44:39;4.60;;;2.75;;
51244;SDS011;37840;47.562;18.738;2023-07-20T06:47:05;3.33;;;2.12;;
51244;SDS011;37840;47.562;18.738;2023-07-20T06:49:31;6.15;;;2.80;;
51244;SDS011;37840;47.562;18.738;2023-07-20T06:51:57;4.43;;;2.25;;
51244;SDS011;37840;47.562;18.738;2023-07-20T06:54:22;3.47;;;2.50;;
51244;SDS011;37840;47.562;18.738;2023-07-20T06:56:48;4.15;;;2.20;;
51244;SDS011;37840;47.562;18.738;2023-07-20T06:59:14;4.47;;;2.65;;
51244;SDS011;37840;47.562;18.738;2023-07-20T07:01:40;3.97;;;2.60;;
51244;SDS011;37840;47.562;18.738;2023-07-20T07:04:06;3.10;;;2.20;;
51244;SDS011;37840;47.562;18.738;2023-07-20T07:06:32;9.45;;;2.50;;
51244;SDS011;37840;47.562;18.738;2023-07-20T07:08:58;2.40;;;1.87;;
51244;SDS011;37840;47.562;18.738;2023-07-20T07:11:24;2.83;;;2.20;;
51244;SDS011;37840;47.562;18.738;2023-07-20T07:13:50;4.50;;;2.30;;
51244;SDS011;37840;47.562;18.738;2023-07-20T07:16:17;2.55;;;2.15;;
51244;SDS011;37840;47.562;18.738;2023-07-20T07:18:45;3.67;;;2.20;;
51244;SDS011;37840;47.562;18.738;2023-07-20T07:21:11;3.10;;;2.20;;
51244;SDS011;37840;47.562;18.738;2023-07-20T07:23:38;3.65;;;2.42;;
51244;SDS011;37840;47.562;18.738;2023-07-20T07:26:04;3.45;;;2.28;;
51244;SDS011;37840;47.562;18.738;2023-07-20T07:28:30;3.60;;;2.00;;
51244;SDS011;37840;47.562;18.738;2023-07-20T07:30:57;3.67;;;2.45;;
51244;SDS011;37840;47.562;18.738;2023-07-20T07:33:23;4.62;;;2.20;;
51244;SDS011;37840;47.562;18.738;2023-07-20T07:35:50;3.40;;;1.92;;
51244;SDS011;37840;47.562;18.738;2023-07-20T07:38:18;2.95;;;2.03;;
51244;SDS011;37840;47.562;18.738;2023-07-20T07:40:45;4.32;;;2.10;;
51244;SDS011;37840;47.562;18.738;2023-07-20T07:43:12;14.90;;;2.47;;
51244;SDS011;37840;47.562;18.738;2023-07-20T07:45:39;2.33;;;2.10;;
51244;SDS011;37840;47.562;18.738;2023-07-20T07:48:06;2.87;;;2.00;;
51244;SDS011;37840;47.562;18.738;2023-07-20T07:50:33;2.47;;;1.90;;
51244;SDS011;37840;47.562;18.738;2023-07-20T07:52:59;4.20;;;2.15;;
51244;SDS011;37840;47.562;18.738;2023-07-20T07:55:25;3.33;;;2.10;;
51244;SDS011;37840;47.562;18.738;2023-07-20T07:57:54;3.75;;;2.00;;
51244;SDS011;37840;47.562;18.738;2023-07-20T08:00:23;5.30;;;2.37;;
51244;SDS011;37840;47.562;18.738;2023-07-20T08:02:50;3.97;;;1.92;;
51244;SDS011;37840;47.562;18.738;2023-07-20T08:05:16;3.58;;;1.95;;
51244;SDS011;37840;47.562;18.738;2023-07-20T08:07:42;8.38;;;2.12;;
51244;SDS011;37840;47.562;18.738;2023-07-20T08:10:09;10.32;;;2.20;;
51244;SDS011;37840;47.562;18.738;2023-07-20T08:12:35;4.25;;;1.77;;
51244;SDS011;37840;47.562;18.738;2023-07-20T08:15:01;5.37;;;1.90;;
51244;SDS011;37840;47.562;18.738;2023-07-20T08:17:27;4.80;;;1.60;;
51244;SDS011;37840;47.562;18.738;2023-07-20T08:19:53;18.17;;;2.28;;
51244;SDS011;37840;47.562;18.738;2023-07-20T08:22:19;5.10;;;1.90;;
51244;SDS011;37840;47.562;18.738;2023-07-20T08:24:45;4.32;;;1.70;;
51244;SDS011;37840;47.562;18.738;2023-07-20T08:27:11;2.72;;;1.90;;
51244;SDS011;37840;47.562;18.738;2023-07-20T08:29:37;3.53;;;1.70;;
51244;SDS011;37840;47.562;18.738;2023-07-20T08:32:04;11.52;;;2.22;;
51244;SDS011;37840;47.562;18.738;2023-07-20T08:34:30;4.03;;;1.85;;
51244;SDS011;37840;47.562;18.738;2023-07-20T08:36:57;2.55;;;1.65;;
51244;SDS011;37840;47.562;18.738;2023-07-20T08:39:24;2.10;;;1.50;;
51244;SDS011;37840;47.562;18.738;2023-07-20T08:41:50;4.32;;;1.70;;
51244;SDS011;37840;47.562;18.738;2023-07-20T08:44:17;2.12;;;1.65;;
51244;SDS011;37840;47.562;18.738;2023-07-20T08:46:43;3.28;;;1.50;;
51244;SDS011;37840;47.562;18.738;2023-07-20T08:49:10;3.10;;;1.65;;
51244;SDS011;37840;47.562;18.738;2023-07-20T08:51:37;2.95;;;1.52;;
51244;SDS011;37840;47.562;18.738;2023-07-20T08:54:04;3.72;;;1.70;;
51244;SDS011;37840;47.562;18.738;2023-07-20T08:56:32;3.15;;;1.67;;
51244;SDS011;37840;47.562;18.738;2023-07-20T08:59:00;2.15;;;1.40;;
51244;SDS011;37840;47.562;18.738;2023-07-20T09:01:28;3.25;;;1.77;;
51244;SDS011;37840;47.562;18.738;2023-07-20T09:03:55;2.85;;;1.60;;
51244;SDS011;37840;47.562;18.738;2023-07-20T09:06:22;3.22;;;1.60;;
51244;SDS011;37840;47.562;18.738;2023-07-20T09:08:48;3.37;;;1.65;;
51244;SDS011;37840;47.562;18.738;2023-07-20T09:11:14;4.18;;;1.90;;
51244;SDS011;37840;47.562;18.738;2023-07-20T09:13:40;3.37;;;1.65;;
51244;SDS011;37840;47.562;18.738;2023-07-20T09:16:06;3.45;;;1.40;;
51244;SDS011;37840;47.562;18.738;2023-07-20T09:18:32;2.37;;;1.60;;
51244;SDS011;37840;47.562;18.738;2023-07-20T09:21:03;1.98;;;1.50;;
51244;SDS011;37840;47.562;18.738;2023-07-20T09:23:32;2.83;;;1.75;;
51244;SDS011;37840;47.562;18.738;2023-07-20T09:26:11;3.80;;;1.70;;
51244;SDS011;37840;47.562;18.738;2023-07-20T09:28:49;3.03;;;1.90;;
51244;SDS011;37840;47.562;18.738;2023-07-20T09:31:17;4.85;;;1.92;;
51244;SDS011;37840;47.562;18.738;2023-07-20T09:33:45;5.57;;;1.83;;
51244;SDS011;37840;47.562;18.738;2023-07-20T09:36:11;2.80;;;1.60;;
51244;SDS011;37840;47.562;18.738;2023-07-20T09:38:38;6.53;;;1.98;;
51244;SDS011;37840;47.562;18.738;2023-07-20T09:41:05;3.55;;;1.60;;
51244;SDS011;37840;47.562;18.738;2023-07-20T09:43:32;3.78;;;1.80;;
51244;SDS011;37840;47.562;18.738;2023-07-20T09:45:59;2.45;;;1.37;;
51244;SDS011;37840;47.562;18.738;2023-07-20T09:48:25;3.28;;;1.73;;
51244;SDS011;37840;47.562;18.738;2023-07-20T09:50:52;2.10;;;1.40;;
51244;SDS011;37840;47.562;18.738;2023-07-20T09:53:19;5.18;;;1.75;;
51244;SDS011;37840;47.562;18.738;2023-07-20T09:55:46;3.00;;;1.40;;
51244;SDS011;37840;47.562;18.738;2023-07-20T09:58:13;2.35;;;1.67;;
51244;SDS011;37840;47.562;18.738;2023-07-20T10:00:40;2.97;;;1.92;;
51244;SDS011;37840;47.562;18.738;2023-07-20T10:03:13;2.40;;;1.80;;
51244;SDS011;37840;47.562;18.738;2023-07-20T10:05:46;5.37;;;1.62;;
51244;SDS011;37840;47.562;18.738;2023-07-20T10:08:17;2.90;;;1.45;;
51244;SDS011;37840;47.562;18.738;2023-07-20T10:10:46;4.13;;;1.80;;
51244;SDS011;37840;47.562;18.738;2023-07-20T10:13:16;2.17;;;1.48;;
51244;SDS011;37840;47.562;18.738;2023-07-20T10:15:47;2.78;;;1.60;;
51244;SDS011;37840;47.562;18.738;2023-07-20T10:21:16;2.75;;;1.40;;
51244;SDS011;37840;47.562;18.738;2023-07-20T10:23:43;4.28;;;1.33;;
51244;SDS011;37840;47.562;18.738;2023-07-20T10:26:10;2.28;;;1.40;;
51244;SDS011;37840;47.562;18.738;2023-07-20T10:28:37;2.50;;;1.30;;
51244;SDS011;37840;47.562;18.738;2023-07-20T10:31:04;2.03;;;1.37;;
51244;SDS011;37840;47.562;18.738;2023-07-20T10:33:30;3.20;;;1.60;;
51244;SDS011;37840;47.562;18.738;2023-07-20T10:36:01;2.25;;;1.35;;
51244;SDS011;37840;47.562;18.738;2023-07-20T10:41:21;2.55;;;1.50;;
51244;SDS011;37840;47.562;18.738;2023-07-20T10:43:50;3.45;;;1.37;;
51244;SDS011;37840;47.562;18.738;2023-07-20T10:49:11;5.90;;;1.48;;
51244;SDS011;37840;47.562;18.738;2023-07-20T10:51:48;3.10;;;1.50;;
51244;SDS011;37840;47.562;18.738;2023-07-20T10:56:47;5.82;;;1.60;;
51244;SDS011;37840;47.562;18.738;2023-07-20T10:59:17;2.45;;;1.62;;
51244;SDS011;37840;47.562;18.738;2023-07-20T11:01:47;4.22;;;1.33;;
51244;SDS011;37840;47.562;18.738;2023-07-20T11:04:17;2.78;;;1.50;;
51244;SDS011;37840;47.562;18.738;2023-07-20T11:06:46;3.47;;;1.52;;
51244;SDS011;37840;47.562;18.738;2023-07-20T11:09:21;1.87;;;1.20;;
51244;SDS011;37840;47.562;18.738;2023-07-20T11:11:48;4.90;;;2.90;;
51244;SDS011;37840;47.562;18.738;2023-07-20T11:14:21;4.93;;;2.40;;
51244;SDS011;37840;47.562;18.738;2023-07-20T11:16:49;5.47;;;2.25;;
51244;SDS011;37840;47.562;18.738;2023-07-20T11:19:20;2.70;;;1.48;;
51244;SDS011;37840;47.562;18.738;2023-07-20T11:21:54;4.32;;;1.60;;
51244;SDS011;37840;47.562;18.738;2023-07-20T11:24:23;2.90;;;1.65;;
51244;SDS011;37840;47.562;18.738;2023-07-20T11:26:50;2.95;;;1.50;;
51244;SDS011;37840;47.562;18.738;2023-07-20T11:29:17;5.53;;;1.40;;
51244;SDS011;37840;47.562;18.738;2023-07-20T11:31:45;2.15;;;1.45;;
51244;SDS011;37840;47.562;18.738;2023-07-20T11:34:16;2.80;;;1.65;;
51244;SDS011;37840;47.562;18.738;2023-07-20T11:36:47;5.25;;;1.48;;
51244;SDS011;37840;47.562;18.738;2023-07-20T11:39:15;2.67;;;1.37;;
51244;SDS011;37840;47.562;18.738;2023-07-20T11:41:49;4.62;;;1.60;;
51244;SDS011;37840;47.562;18.738;2023-07-20T11:44:16;2.30;;;1.40;;
51244;SDS011;37840;47.562;18.738;2023-07-20T11:46:43;1.83;;;1.40;;
51244;SDS011;37840;47.562;18.738;2023-07-20T11:49:10;5.12;;;1.60;;
51244;SDS011;37840;47.562;18.738;2023-07-20T11:51:38;3.65;;;1.40;;
51244;SDS011;37840;47.562;18.738;2023-07-20T11:54:06;2.05;;;1.30;;
51244;SDS011;37840;47.562;18.738;2023-07-20T11:56:33;2.78;;;1.48;;
51244;SDS011;37840;47.562;18.738;2023-07-20T11:59:00;2.28;;;1.45;;
51244;SDS011;37840;47.562;18.738;2023-07-20T12:01:28;2.25;;;1.58;;
51244;SDS011;37840;47.562;18.738;2023-07-20T12:03:57;2.40;;;1.30;;
51244;SDS011;37840;47.562;18.738;2023-07-20T12:06:24;4.65;;;1.40;;
51244;SDS011;37840;47.562;18.738;2023-07-20T12:08:55;3.20;;;1.30;;
51244;SDS011;37840;47.562;18.738;2023-07-20T12:11:32;4.40;;;1.50;;
51244;SDS011;37840;47.562;18.738;2023-07-20T12:14:03;3.60;;;1.55;;
51244;SDS011;37840;47.562;18.738;2023-07-20T12:16:30;2.45;;;1.40;;
51244;SDS011;37840;47.562;18.738;2023-07-20T12:19:00;7.00;;;1.60;;
51244;SDS011;37840;47.562;18.738;2023-07-20T12:21:33;10.35;;;1.90;;
51244;SDS011;37840;47.562;18.738;2023-07-20T12:24:02;3.95;;;1.23;;
51244;SDS011;37840;47.562;18.738;2023-07-20T12:26:29;2.22;;;1.40;;
51244;SDS011;37840;47.562;18.738;2023-07-20T12:28:56;3.55;;;1.17;;
51244;SDS011;37840;47.562;18.738;2023-07-20T12:31:22;3.87;;;1.20;;
51244;SDS011;37840;47.562;18.738;2023-07-20T12:33:50;2.03;;;1.45;;
51244;SDS011;37840;47.562;18.738;2023-07-20T12:36:16;1.87;;;1.30;;
51244;SDS011;37840;47.562;18.738;2023-07-20T12:38:43;3.60;;;1.30;;
51244;SDS011;37840;47.562;18.738;2023-07-20T12:41:10;1.60;;;1.27;;
51244;SDS011;37840;47.562;18.738;2023-07-20T12:43:40;3.20;;;1.20;;
51244;SDS011;37840;47.562;18.738;2023-07-20T12:46:08;2.72;;;1.00;;
51244;SDS011;37840;47.562;18.738;2023-07-20T12:48:35;2.05;;;1.10;;
51244;SDS011;37840;47.562;18.738;2023-07-20T12:51:07;3.78;;;1.33;;
51244;SDS011;37840;47.562;18.738;2023-07-20T12:53:34;1.75;;;1.20;;
51244;SDS011;37840;47.562;18.738;2023-07-20T12:56:00;3.62;;;1.27;;
51244;SDS011;37840;47.562;18.738;2023-07-20T12:58:26;1.55;;;1.00;;
51244;SDS011;37840;47.562;18.738;2023-07-20T13:00:52;6.62;;;1.15;;
51244;SDS011;37840;47.562;18.738;2023-07-20T13:03:19;2.55;;;1.08;;
51244;SDS011;37840;47.562;18.738;2023-07-20T13:05:48;2.72;;;1.10;;
51244;SDS011;37840;47.562;18.738;2023-07-20T13:08:17;4.50;;;1.57;;
51244;SDS011;37840;47.562;18.738;2023-07-20T13:10:45;2.25;;;0.95;;
51244;SDS011;37840;47.562;18.738;2023-07-20T13:13:11;7.70;;;1.50;;
51244;SDS011;37840;47.562;18.738;2023-07-20T13:15:43;2.85;;;1.20;;
51244;SDS011;37840;47.562;18.738;2023-07-20T13:18:10;3.33;;;1.10;;
51244;SDS011;37840;47.562;18.738;2023-07-20T13:20:36;2.22;;;1.20;;
51244;SDS011;37840;47.562;18.738;2023-07-20T13:23:02;2.50;;;1.10;;
51244;SDS011;37840;47.562;18.738;2023-07-20T13:25:28;2.72;;;1.17;;
51244;SDS011;37840;47.562;18.738;2023-07-20T13:27:54;2.80;;;0.90;;
51244;SDS011;37840;47.562;18.738;2023-07-20T13:30:20;2.05;;;1.10;;
51244;SDS011;37840;47.562;18.738;2023-07-20T13:32:47;1.90;;;1.05;;
51244;SDS011;37840;47.562;18.738;2023-07-20T13:35:13;3.72;;;1.30;;
51244;SDS011;37840;47.562;18.738;2023-07-20T13:37:40;2.85;;;1.30;;
51244;SDS011;37840;47.562;18.738;2023-07-20T13:40:06;2.08;;;1.40;;
51244;SDS011;37840;47.562;18.738;2023-07-20T13:42:37;1.50;;;1.00;;
51244;SDS011;37840;47.562;18.738;2023-07-20T13:45:03;2.72;;;1.27;;
51244;SDS011;37840;47.562;18.738;2023-07-20T13:47:30;2.40;;;1.20;;
51244;SDS011;37840;47.562;18.738;2023-07-20T13:49:56;2.12;;;1.10;;
51244;SDS011;37840;47.562;18.738;2023-07-20T13:52:22;4.50;;;1.10;;
51244;SDS011;37840;47.562;18.738;2023-07-20T13:54:48;4.05;;;1.50;;
51244;SDS011;37840;47.562;18.738;2023-07-20T13:57:14;3.12;;;1.35;;
51244;SDS011;37840;47.562;18.738;2023-07-20T13:59:43;1.73;;;1.00;;
51244;SDS011;37840;47.562;18.738;2023-07-20T14:02:10;2.45;;;1.30;;
51244;SDS011;37840;47.562;18.738;2023-07-20T14:04:36;2.75;;;1.10;;
51244;SDS011;37840;47.562;18.738;2023-07-20T14:07:02;1.65;;;1.10;;
51244;SDS011;37840;47.562;18.738;2023-07-20T14:09:28;4.22;;;1.35;;
51244;SDS011;37840;47.562;18.738;2023-07-20T14:11:54;1.85;;;1.25;;
51244;SDS011;37840;47.562;18.738;2023-07-20T14:14:20;1.98;;;1.05;;
51244;SDS011;37840;47.562;18.738;2023-07-20T14:16:46;2.15;;;1.10;;
51244;SDS011;37840;47.562;18.738;2023-07-20T14:19:12;2.85;;;1.10;;
51244;SDS011;37840;47.562;18.738;2023-07-20T14:21:38;2.12;;;1.02;;
51244;SDS011;37840;47.562;18.738;2023-07-20T14:24:04;4.37;;;1.10;;
51244;SDS011;37840;47.562;18.738;2023-07-20T14:26:30;2.37;;;1.40;;
51244;SDS011;37840;47.562;18.738;2023-07-20T14:28:56;3.50;;;0.98;;
51244;SDS011;37840;47.562;18.738;2023-07-20T14:31:22;6.50;;;1.30;;
51244;SDS011;37840;47.562;18.738;2023-07-20T14:33:48;3.78;;;1.17;;
51244;SDS011;37840;47.562;18.738;2023-07-20T14:36:14;2.12;;;1.00;;
51244;SDS011;37840;47.562;18.738;2023-07-20T14:38:40;1.70;;;0.95;;
51244;SDS011;37840;47.562;18.738;2023-07-20T14:41:06;3.00;;;1.00;;
51244;SDS011;37840;47.562;18.738;2023-07-20T14:43:32;2.65;;;1.52;;
51244;SDS011;37840;47.562;18.738;2023-07-20T14:45:58;6.68;;;1.00;;
51244;SDS011;37840;47.562;18.738;2023-07-20T14:48:24;3.12;;;1.15;;
51244;SDS011;37840;47.562;18.738;2023-07-20T14:50:50;2.03;;;1.37;;
51244;SDS011;37840;47.562;18.738;2023-07-20T14:53:16;4.18;;;1.12;;